Time;durP1;ratioP1;P1;durP2;ratioP2;P2;SDS_P1;SDS_P2;PMS_P1;PMS_P2;Temp;Humidity;BMP_temperature;BMP_pressure;BME280_temperature;BME280_humidity;BME280_pressure;Samples;Min_cycle;Max_cycle;Signal;HPM_P1;HPM_P2
2023/07/06 00:00:34;;;;;;;2.17;1.83;;;;;;;;;;5014360;28;20201;-74
2023/07/06 00:03:00;;;;;;;2.63;2.03;;;;;;;;;;5006814;28;20218;-75
2023/07/06 00:05:25;;;;;;;3.23;2.33;;;;;;;;;;4993028;28;20179;-75
2023/07/06 00:07:52;;;;;;;3.87;2.10;;;;;;;;;;5007729;28;20177;-75
2023/07/06 00:10:17;;;;;;;2.43;2.23;;;;;;;;;;5007780;28;20203;-75
2023/07/06 00:12:43;;;;;;;2.17;1.97;;;;;;;;;;4995354;28;20297;-75
2023/07/06 00:15:09;;;;;;;2.23;1.77;;;;;;;;;;4991092;28;20284;-75
2023/07/06 00:17:34;;;;;;;1.97;1.73;;;;;;;;;;4993964;28;20188;-75
2023/07/06 00:19:59;;;;;;;4.43;2.00;;;;;;;;;;5012089;28;20302;-75
2023/07/06 00:22:25;;;;;;;4.57;2.37;;;;;;;;;;5007604;28;20178;-75
2023/07/06 00:24:50;;;;;;;4.10;2.03;;;;;;;;;;5011339;28;20180;-75
2023/07/06 00:27:16;;;;;;;3.20;2.23;;;;;;;;;;4995608;28;20179;-75
2023/07/06 00:29:56;;;;;;;4.23;2.70;;;;;;;;;;5000332;28;20230;-75
2023/07/06 00:32:28;;;;;;;2.17;1.63;;;;;;;;;;4995376;28;20193;-75
2023/07/06 00:34:56;;;;;;;6.83;3.03;;;;;;;;;;5009386;28;20197;-75
2023/07/06 00:37:21;;;;;;;2.30;2.10;;;;;;;;;;5000994;28;20187;-74
2023/07/06 00:39:47;;;;;;;2.33;1.67;;;;;;;;;;5016541;28;20207;-75
2023/07/06 00:42:16;;;;;;;3.03;1.80;;;;;;;;;;4998671;28;20186;-75
2023/07/06 00:44:46;;;;;;;2.10;1.90;;;;;;;;;;5010214;28;20187;-75
2023/07/06 00:47:12;;;;;;;1.93;1.70;;;;;;;;;;4995661;28;20246;-75
2023/07/06 00:49:37;;;;;;;2.27;2.07;;;;;;;;;;5017834;28;20199;-74
2023/07/06 00:52:03;;;;;;;3.20;2.03;;;;;;;;;;5014551;28;20178;-75
2023/07/06 00:54:29;;;;;;;2.87;2.03;;;;;;;;;;5009579;28;20231;-74
2023/07/06 00:56:54;;;;;;;2.40;1.83;;;;;;;;;;5015847;28;20187;-75
2023/07/06 00:59:20;;;;;;;3.07;1.90;;;;;;;;;;5015241;28;20222;-75
2023/07/06 01:01:46;;;;;;;3.00;1.63;;;;;;;;;;5006533;28;20186;-75
2023/07/06 01:04:13;;;;;;;4.33;2.07;;;;;;;;;;4992554;28;20176;-74
2023/07/06 01:06:47;;;;;;;3.20;2.00;;;;;;;;;;4997248;28;20183;-73
2023/07/06 01:09:12;;;;;;;8.17;2.13;;;;;;;;;;4994246;28;20172;-73
2023/07/06 01:11:38;;;;;;;3.47;2.00;;;;;;;;;;5011293;28;20233;-73
2023/07/06 01:14:03;;;;;;;3.73;1.90;;;;;;;;;;5015594;28;20184;-73
2023/07/06 01:16:44;;;;;;;4.07;2.40;;;;;;;;;;5007496;28;20226;-73
2023/07/06 01:19:23;;;;;;;2.53;1.93;;;;;;;;;;4995852;28;20226;-73
2023/07/06 01:21:58;;;;;;;3.17;2.13;;;;;;;;;;4991757;28;20207;-73
2023/07/06 01:24:32;;;;;;;4.80;2.43;;;;;;;;;;4993325;28;20178;-73
2023/07/06 01:27:09;;;;;;;2.43;1.90;;;;;;;;;;5002051;28;20181;-73
2023/07/06 01:29:34;;;;;;;3.20;2.43;;;;;;;;;;5003064;28;20186;-73
2023/07/06 01:32:21;;;;;;;1.97;1.77;;;;;;;;;;4996435;28;20184;-73
2023/07/06 01:34:53;;;;;;;3.13;2.10;;;;;;;;;;4992713;28;20186;-73
2023/07/06 01:37:33;;;;;;;2.37;1.90;;;;;;;;;;4998193;28;20179;-73
2023/07/06 01:39:59;;;;;;;5.00;2.37;;;;;;;;;;5011965;28;20203;-72
2023/07/06 01:42:27;;;;;;;2.20;2.00;;;;;;;;;;5007566;28;20176;-73
2023/07/06 01:44:55;;;;;;;2.80;2.13;;;;;;;;;;5011363;28;20186;-73
2023/07/06 01:47:20;;;;;;;1.90;1.80;;;;;;;;;;5012671;28;20178;-73
2023/07/06 01:49:48;;;;;;;3.33;2.10;;;;;;;;;;4998586;28;20216;-73
2023/07/06 01:52:19;;;;;;;2.57;1.80;;;;;;;;;;4994299;28;20209;-73
2023/07/06 01:54:49;;;;;;;2.63;1.63;;;;;;;;;;5001570;28;20236;-73
2023/07/06 01:57:18;;;;;;;2.47;1.97;;;;;;;;;;5014988;28;20221;-73
2023/07/06 01:59:46;;;;;;;2.47;1.80;;;;;;;;;;4994973;28;20245;-72
2023/07/06 02:02:12;;;;;;;2.37;1.73;;;;;;;;;;5008795;28;20271;-73
2023/07/06 02:04:37;;;;;;;2.83;1.80;;;;;;;;;;5005700;28;20214;-73
2023/07/06 02:07:05;;;;;;;2.90;1.93;;;;;;;;;;4983600;28;20182;-73
2023/07/06 02:09:30;;;;;;;4.13;2.50;;;;;;;;;;5010767;28;20210;-72
2023/07/06 02:11:55;;;;;;;1.90;1.77;;;;;;;;;;5007559;28;20190;-72
2023/07/06 02:14:21;;;;;;;3.20;1.87;;;;;;;;;;4993502;28;20202;-74
2023/07/06 02:16:50;;;;;;;2.90;2.20;;;;;;;;;;5001965;28;20237;-73
2023/07/06 02:19:16;;;;;;;2.50;2.00;;;;;;;;;;5010217;28;20201;-72
2023/07/06 02:21:41;;;;;;;2.13;1.73;;;;;;;;;;5002380;28;20212;-74
2023/07/06 02:24:09;;;;;;;3.63;1.90;;;;;;;;;;5011133;28;20175;-73
2023/07/06 02:26:34;;;;;;;2.33;2.13;;;;;;;;;;5018068;28;20182;-73
2023/07/06 02:29:01;;;;;;;1.90;1.70;;;;;;;;;;5001693;28;20191;-72
2023/07/06 02:31:26;;;;;;;5.67;1.90;;;;;;;;;;5010803;28;20183;-73
2023/07/06 02:33:52;;;;;;;1.70;1.60;;;;;;;;;;5017925;28;20190;-72
2023/07/06 02:36:17;;;;;;;2.07;1.80;;;;;;;;;;4994285;28;20263;-73
2023/07/06 02:38:43;;;;;;;4.67;2.00;;;;;;;;;;5015402;28;20213;-73
2023/07/06 02:41:09;;;;;;;4.37;2.20;;;;;;;;;;5011180;28;20206;-73
2023/07/06 02:43:34;;;;;;;2.53;2.23;;;;;;;;;;4991445;28;20192;-72
2023/07/06 02:46:01;;;;;;;3.03;2.10;;;;;;;;;;5016969;28;20186;-73
2023/07/06 02:48:26;;;;;;;3.00;2.10;;;;;;;;;;4992551;28;20185;-74
2023/07/06 02:50:51;;;;;;;2.60;2.07;;;;;;;;;;5009743;28;20207;-73
2023/07/06 02:53:17;;;;;;;3.57;1.80;;;;;;;;;;5009115;28;20188;-72
2023/07/06 02:55:44;;;;;;;1.90;1.80;;;;;;;;;;4995128;28;20198;-72
2023/07/06 02:58:09;;;;;;;1.93;1.73;;;;;;;;;;5004961;28;20186;-73
2023/07/06 03:00:35;;;;;;;2.30;2.10;;;;;;;;;;5002369;28;20207;-72
2023/07/06 03:03:00;;;;;;;3.77;1.90;;;;;;;;;;4995725;28;20281;-72
2023/07/06 03:05:25;;;;;;;3.67;2.00;;;;;;;;;;5021538;28;20185;-73
2023/07/06 03:07:54;;;;;;;4.97;2.27;;;;;;;;;;5013398;28;20265;-73
2023/07/06 03:10:22;;;;;;;3.53;2.20;;;;;;;;;;5010172;28;20171;-72
2023/07/06 03:12:48;;;;;;;2.57;1.80;;;;;;;;;;4993692;28;20274;-72
2023/07/06 03:15:14;;;;;;;5.47;2.30;;;;;;;;;;5021455;28;20178;-72
2023/07/06 03:17:39;;;;;;;3.33;2.13;;;;;;;;;;5012407;28;20193;-73
2023/07/06 03:20:14;;;;;;;3.47;2.03;;;;;;;;;;4994711;28;20214;-72
2023/07/06 03:22:40;;;;;;;2.00;1.80;;;;;;;;;;4998903;28;20182;-72
2023/07/06 03:25:08;;;;;;;2.33;2.10;;;;;;;;;;5008927;28;20208;-74
2023/07/06 03:27:36;;;;;;;2.67;2.03;;;;;;;;;;4992138;28;20175;-73
2023/07/06 03:30:01;;;;;;;57.07;7.70;;;;;;;;;;4994595;28;20190;-72
2023/07/06 03:32:26;;;;;;;2.20;1.80;;;;;;;;;;5009474;28;20182;-74
2023/07/06 03:34:52;;;;;;;3.23;1.73;;;;;;;;;;5010360;28;20181;-73
2023/07/06 03:37:18;;;;;;;3.43;2.10;;;;;;;;;;5008493;28;20193;-72
2023/07/06 03:39:47;;;;;;;3.10;2.30;;;;;;;;;;5013314;28;20252;-72
2023/07/06 03:42:12;;;;;;;3.37;2.00;;;;;;;;;;5001449;28;20271;-72
2023/07/06 03:44:39;;;;;;;4.27;1.90;;;;;;;;;;5011602;28;20232;-72
2023/07/06 03:47:04;;;;;;;5.33;2.17;;;;;;;;;;4999119;28;20203;-73
2023/07/06 03:49:33;;;;;;;5.10;1.97;;;;;;;;;;4990317;28;20206;-72
2023/07/06 03:51:59;;;;;;;3.80;2.03;;;;;;;;;;4992627;28;20181;-72
2023/07/06 03:54:24;;;;;;;3.53;2.20;;;;;;;;;;4993132;28;20220;-73
2023/07/06 03:56:51;;;;;;;3.63;2.10;;;;;;;;;;4992851;28;20195;-74
2023/07/06 03:59:16;;;;;;;2.27;1.80;;;;;;;;;;4991283;28;20211;-73
2023/07/06 04:01:41;;;;;;;2.33;1.77;;;;;;;;;;5011850;28;20180;-73
2023/07/06 04:04:08;;;;;;;3.13;2.30;;;;;;;;;;4990316;28;20181;-73
2023/07/06 04:06:40;;;;;;;2.53;2.10;;;;;;;;;;5010701;28;20180;-73
2023/07/06 04:09:05;;;;;;;3.07;1.73;;;;;;;;;;4992252;28;20182;-73
2023/07/06 04:11:30;;;;;;;7.17;2.33;;;;;;;;;;5010550;28;20200;-73
2023/07/06 04:13:57;;;;;;;2.47;2.03;;;;;;;;;;5005675;28;20179;-73
2023/07/06 04:16:22;;;;;;;4.50;2.13;;;;;;;;;;5011732;28;20182;-73
2023/07/06 04:18:47;;;;;;;2.53;1.97;;;;;;;;;;5010542;28;20208;-73
2023/07/06 04:21:19;;;;;;;1.80;1.70;;;;;;;;;;4996665;28;20186;-73
2023/07/06 04:23:50;;;;;;;1.80;1.70;;;;;;;;;;4984725;28;20173;-72
2023/07/06 04:26:16;;;;;;;3.63;1.73;;;;;;;;;;4993124;28;20173;-73
2023/07/06 04:28:42;;;;;;;2.27;1.97;;;;;;;;;;5003236;28;20193;-74
2023/07/06 04:31:07;;;;;;;3.63;2.10;;;;;;;;;;5013588;28;20173;-73
2023/07/06 04:33:33;;;;;;;3.27;2.20;;;;;;;;;;5011226;28;20186;-74
2023/07/06 04:35:59;;;;;;;4.70;2.10;;;;;;;;;;4981075;28;20187;-74
2023/07/06 04:38:29;;;;;;;2.87;2.00;;;;;;;;;;4986434;28;20169;-74
2023/07/06 04:40:55;;;;;;;2.07;1.87;;;;;;;;;;5006318;28;20206;-74
2023/07/06 04:43:20;;;;;;;4.07;1.73;;;;;;;;;;5001294;28;20179;-74
2023/07/06 04:45:45;;;;;;;3.17;2.27;;;;;;;;;;4996430;28;20192;-74
2023/07/06 04:48:10;;;;;;;2.73;2.20;;;;;;;;;;5015879;28;20281;-74
2023/07/06 04:50:37;;;;;;;2.17;1.97;;;;;;;;;;4988932;28;20201;-74
2023/07/06 04:53:03;;;;;;;2.97;1.97;;;;;;;;;;5012941;28;20182;-74
2023/07/06 04:55:29;;;;;;;6.50;2.73;;;;;;;;;;5006367;28;20233;-74
2023/07/06 04:57:56;;;;;;;8.27;2.20;;;;;;;;;;4997177;28;20198;-74
2023/07/06 05:00:24;;;;;;;1.73;1.60;;;;;;;;;;4995002;28;20264;-74
2023/07/06 05:02:51;;;;;;;2.40;1.57;;;;;;;;;;4995347;28;20185;-74
2023/07/06 05:05:17;;;;;;;2.77;2.10;;;;;;;;;;5022962;28;20200;-74
2023/07/06 05:07:42;;;;;;;2.67;1.70;;;;;;;;;;5009197;28;20245;-74
2023/07/06 05:10:10;;;;;;;4.13;2.33;;;;;;;;;;4998628;28;20182;-75
2023/07/06 05:12:36;;;;;;;2.13;1.70;;;;;;;;;;4997141;28;20189;-75
2023/07/06 05:15:02;;;;;;;2.50;1.87;;;;;;;;;;5010960;28;20189;-74
2023/07/06 05:17:27;;;;;;;3.93;2.20;;;;;;;;;;4990262;28;20276;-75
2023/07/06 05:19:52;;;;;;;2.63;2.13;;;;;;;;;;5012259;28;20218;-74
2023/07/06 05:22:18;;;;;;;8.93;2.50;;;;;;;;;;5009512;28;20186;-74
2023/07/06 05:24:44;;;;;;;6.67;1.93;;;;;;;;;;5013905;28;20233;-75
2023/07/06 05:27:09;;;;;;;4.63;1.93;;;;;;;;;;5012486;28;20261;-75
2023/07/06 05:29:34;;;;;;;2.33;1.50;;;;;;;;;;5003415;28;20183;-75
2023/07/06 05:31:59;;;;;;;2.33;1.80;;;;;;;;;;4990240;28;20194;-74
2023/07/06 05:34:24;;;;;;;5.80;2.77;;;;;;;;;;4996942;28;20217;-74
2023/07/06 05:36:50;;;;;;;8.83;2.47;;;;;;;;;;4993394;28;20210;-75
2023/07/06 05:39:15;;;;;;;2.03;1.80;;;;;;;;;;5022746;28;20194;-74
2023/07/06 05:41:40;;;;;;;7.53;2.53;;;;;;;;;;5014461;28;20172;-75
2023/07/06 05:44:05;;;;;;;3.47;2.13;;;;;;;;;;4996632;28;20208;-74
2023/07/06 05:46:31;;;;;;;2.03;1.73;;;;;;;;;;5009331;28;20183;-75
2023/07/06 05:48:56;;;;;;;7.20;2.87;;;;;;;;;;5012472;28;20213;-74
2023/07/06 05:51:21;;;;;;;8.70;3.13;;;;;;;;;;5009899;28;20207;-74
2023/07/06 05:53:49;;;;;;;3.03;1.80;;;;;;;;;;5013378;28;20223;-75
2023/07/06 05:56:14;;;;;;;3.47;1.80;;;;;;;;;;4999365;28;20215;-74
2023/07/06 05:58:40;;;;;;;5.63;2.70;;;;;;;;;;5014860;28;20218;-74
2023/07/06 06:01:05;;;;;;;7.23;2.27;;;;;;;;;;4989077;28;20191;-74
2023/07/06 06:03:30;;;;;;;16.03;3.60;;;;;;;;;;5003412;28;20234;-75
2023/07/06 06:05:55;;;;;;;3.53;2.10;;;;;;;;;;4996116;28;20253;-74
2023/07/06 06:08:21;;;;;;;8.03;2.50;;;;;;;;;;5012203;28;20180;-74
2023/07/06 06:10:49;;;;;;;2.77;1.90;;;;;;;;;;4989049;28;20212;-74
2023/07/06 06:13:15;;;;;;;2.27;1.90;;;;;;;;;;4993485;28;20193;-74
2023/07/06 06:15:40;;;;;;;3.47;1.90;;;;;;;;;;4993642;28;20184;-75
2023/07/06 06:18:06;;;;;;;4.27;1.97;;;;;;;;;;4989463;28;20212;-74
2023/07/06 06:20:32;;;;;;;3.97;1.90;;;;;;;;;;5011209;28;20204;-74
2023/07/06 06:23:00;;;;;;;3.00;1.87;;;;;;;;;;4992873;28;20181;-74
2023/07/06 06:25:25;;;;;;;3.20;1.80;;;;;;;;;;5011423;28;20169;-75
2023/07/06 06:27:51;;;;;;;3.10;1.90;;;;;;;;;;5009997;28;20192;-71
2023/07/06 06:30:16;;;;;;;3.87;2.07;;;;;;;;;;5008132;28;20264;-73
2023/07/06 06:32:42;;;;;;;6.87;2.23;;;;;;;;;;4993548;28;20253;-73
2023/07/06 06:35:39;;;;;;;2.30;1.97;;;;;;;;;;5005218;28;20181;-73
2023/07/06 06:38:05;;;;;;;2.67;2.03;;;;;;;;;;4978027;28;20265;-73
2023/07/06 06:40:31;;;;;;;7.30;2.30;;;;;;;;;;5001574;28;20201;-74
2023/07/06 06:42:57;;;;;;;2.50;1.90;;;;;;;;;;5014443;28;20185;-73
2023/07/06 06:45:22;;;;;;;4.37;1.90;;;;;;;;;;5012628;28;20208;-72
2023/07/06 06:47:48;;;;;;;5.67;2.00;;;;;;;;;;5011737;28;20222;-72
2023/07/06 06:50:19;;;;;;;2.67;2.03;;;;;;;;;;5005951;28;20221;-72
2023/07/06 06:52:44;;;;;;;2.80;1.70;;;;;;;;;;4996805;28;20345;-72
2023/07/06 06:55:10;;;;;;;4.37;1.90;;;;;;;;;;4979640;28;20230;-71
2023/07/06 06:57:35;;;;;;;3.43;1.60;;;;;;;;;;4969740;28;20226;-72
2023/07/06 07:00:00;;;;;;;3.77;1.80;;;;;;;;;;4988100;28;20225;-72
2023/07/06 07:02:26;;;;;;;4.27;2.17;;;;;;;;;;4982560;28;20194;-72
2023/07/06 07:04:51;;;;;;;3.63;2.07;;;;;;;;;;4988032;28;20218;-72
2023/07/06 07:07:17;;;;;;;2.73;2.00;;;;;;;;;;4969626;28;20191;-72
2023/07/06 07:09:44;;;;;;;2.30;2.10;;;;;;;;;;4981678;28;20186;-72
2023/07/06 07:12:10;;;;;;;2.17;1.97;;;;;;;;;;4972967;28;20191;-72
2023/07/06 07:14:35;;;;;;;98.00;12.30;;;;;;;;;;4974831;28;20182;-72
2023/07/06 07:17:01;;;;;;;2.33;1.83;;;;;;;;;;4991200;28;20254;-72
2023/07/06 07:19:28;;;;;;;6.53;2.70;;;;;;;;;;4979065;28;20197;-72
2023/07/06 07:21:53;;;;;;;4.37;2.10;;;;;;;;;;4973218;28;20202;-72
2023/07/06 07:24:18;;;;;;;2.57;1.80;;;;;;;;;;4975720;28;20176;-72
2023/07/06 07:26:45;;;;;;;4.17;2.77;;;;;;;;;;4974895;28;20181;-72
2023/07/06 07:29:10;;;;;;;2.60;1.80;;;;;;;;;;4985232;28;20188;-72
2023/07/06 07:31:36;;;;;;;2.00;1.90;;;;;;;;;;4987901;28;20183;-72
2023/07/06 07:34:01;;;;;;;5.33;2.40;;;;;;;;;;4990490;28;20183;-72
2023/07/06 07:36:27;;;;;;;8.17;2.90;;;;;;;;;;4973672;28;20181;-72
2023/07/06 07:38:56;;;;;;;5.37;2.10;;;;;;;;;;4972955;28;20230;-72
2023/07/06 07:41:22;;;;;;;2.30;1.80;;;;;;;;;;4986270;28;20200;-72
2023/07/06 07:43:48;;;;;;;4.20;2.30;;;;;;;;;;4990457;28;20181;-72
2023/07/06 07:46:14;;;;;;;9.53;2.77;;;;;;;;;;4986838;28;20180;-72
2023/07/06 07:48:44;;;;;;;2.03;1.80;;;;;;;;;;4969153;28;20177;-72
2023/07/06 07:51:11;;;;;;;3.83;2.13;;;;;;;;;;4985760;28;20194;-72
2023/07/06 07:53:37;;;;;;;4.20;2.00;;;;;;;;;;4977287;28;20251;-72
2023/07/06 07:56:04;;;;;;;3.13;1.90;;;;;;;;;;4991946;28;20170;-72
2023/07/06 07:58:30;;;;;;;1.87;1.73;;;;;;;;;;5004629;28;20174;-72
2023/07/06 08:00:55;;;;;;;3.73;2.27;;;;;;;;;;4995175;28;20226;-72
2023/07/06 08:03:21;;;;;;;3.30;2.30;;;;;;;;;;4992093;28;20178;-72
2023/07/06 08:05:47;;;;;;;3.50;1.90;;;;;;;;;;5012882;28;20192;-72
2023/07/06 08:08:13;;;;;;;2.17;1.97;;;;;;;;;;5002690;28;20199;-72
2023/07/06 08:10:38;;;;;;;2.77;1.83;;;;;;;;;;4993475;28;20216;-72
2023/07/06 08:13:05;;;;;;;9.03;2.77;;;;;;;;;;4993688;28;20188;-72
2023/07/06 08:15:30;;;;;;;5.00;2.20;;;;;;;;;;4994548;28;20222;-72
2023/07/06 08:18:00;;;;;;;4.30;2.33;;;;;;;;;;4998758;28;20178;-72
2023/07/06 08:20:28;;;;;;;2.80;2.10;;;;;;;;;;4992436;28;20212;-71
2023/07/06 08:22:57;;;;;;;3.57;2.63;;;;;;;;;;4998858;28;20175;-72
2023/07/06 08:25:23;;;;;;;2.50;2.00;;;;;;;;;;4998459;28;20254;-72
2023/07/06 08:27:48;;;;;;;4.40;2.23;;;;;;;;;;5023339;28;20206;-72
2023/07/06 08:30:13;;;;;;;4.13;2.20;;;;;;;;;;5009806;28;20272;-72
2023/07/06 08:32:39;;;;;;;7.13;2.63;;;;;;;;;;4995397;28;20186;-72
2023/07/06 08:35:04;;;;;;;4.57;2.60;;;;;;;;;;5010721;28;20374;-72
2023/07/06 08:37:30;;;;;;;2.47;2.27;;;;;;;;;;5005046;28;20175;-72
2023/07/06 08:39:55;;;;;;;3.00;2.00;;;;;;;;;;5010675;28;20217;-72
2023/07/06 08:42:21;;;;;;;6.07;2.30;;;;;;;;;;4992329;28;20215;-72
2023/07/06 08:44:50;;;;;;;6.77;2.70;;;;;;;;;;5014436;28;20230;-72
2023/07/06 08:47:16;;;;;;;2.90;2.17;;;;;;;;;;4993263;28;20186;-72
2023/07/06 08:49:43;;;;;;;3.63;2.40;;;;;;;;;;5014123;28;20203;-72
2023/07/06 08:52:10;;;;;;;5.27;2.97;;;;;;;;;;4989396;28;20191;-72
2023/07/06 08:54:36;;;;;;;3.13;2.23;;;;;;;;;;5012273;28;20217;-72
2023/07/06 08:57:02;;;;;;;4.87;1.90;;;;;;;;;;4992181;28;20213;-72
2023/07/06 08:59:40;;;;;;;3.03;2.20;;;;;;;;;;5003918;28;20207;-72
2023/07/06 09:02:09;;;;;;;3.10;2.17;;;;;;;;;;5008595;28;20188;-72
2023/07/06 09:04:35;;;;;;;8.63;2.43;;;;;;;;;;4996198;28;20207;-72
2023/07/06 09:07:02;;;;;;;4.07;2.30;;;;;;;;;;4998217;28;20220;-72
2023/07/06 09:09:28;;;;;;;4.47;2.40;;;;;;;;;;5015572;28;20180;-72
2023/07/06 09:11:56;;;;;;;4.10;2.10;;;;;;;;;;5010421;28;20205;-72
2023/07/06 09:14:24;;;;;;;6.07;2.20;;;;;;;;;;4991224;28;20188;-72
2023/07/06 09:16:56;;;;;;;2.60;1.90;;;;;;;;;;5017540;28;20247;-72
2023/07/06 09:19:22;;;;;;;3.63;2.10;;;;;;;;;;5014489;28;20207;-72
2023/07/06 09:21:50;;;;;;;4.53;2.30;;;;;;;;;;4995435;28;20188;-72
2023/07/06 09:24:16;;;;;;;3.00;2.17;;;;;;;;;;4994790;28;20225;-72
2023/07/06 09:26:43;;;;;;;2.37;2.17;;;;;;;;;;4995672;28;20181;-72
2023/07/06 09:29:19;;;;;;;4.07;2.00;;;;;;;;;;5007723;28;20192;-72
2023/07/06 09:31:44;;;;;;;3.10;2.10;;;;;;;;;;5007585;28;20176;-72
2023/07/06 09:34:21;;;;;;;3.03;2.13;;;;;;;;;;5009444;28;20178;-72
2023/07/06 09:36:47;;;;;;;2.73;2.20;;;;;;;;;;5011805;28;20185;-72
2023/07/06 09:39:14;;;;;;;4.70;2.40;;;;;;;;;;5016209;28;20208;-72
2023/07/06 09:41:43;;;;;;;3.20;1.97;;;;;;;;;;4996276;28;20248;-72
2023/07/06 09:44:12;;;;;;;2.50;2.30;;;;;;;;;;4993759;28;20248;-71
2023/07/06 09:46:38;;;;;;;3.43;2.10;;;;;;;;;;5011489;28;20207;-72
2023/07/06 09:49:20;;;;;;;3.37;2.50;;;;;;;;;;4996108;28;20272;-72
2023/07/06 09:51:50;;;;;;;6.17;2.10;;;;;;;;;;4995801;28;20192;-72
2023/07/06 09:54:20;;;;;;;2.30;2.10;;;;;;;;;;5009819;28;20246;-72
2023/07/06 09:56:45;;;;;;;3.37;2.40;;;;;;;;;;4995381;28;20185;-71
2023/07/06 09:59:11;;;;;;;3.73;3.03;;;;;;;;;;5008521;28;20210;-72
2023/07/06 10:01:37;;;;;;;3.67;2.53;;;;;;;;;;5010543;28;20201;-72
2023/07/06 10:04:05;;;;;;;4.53;2.10;;;;;;;;;;5012273;28;20260;-72
2023/07/06 10:06:37;;;;;;;4.90;2.47;;;;;;;;;;4995371;28;20184;-72
2023/07/06 10:09:14;;;;;;;2.23;2.03;;;;;;;;;;5010520;28;20192;-72
2023/07/06 10:11:50;;;;;;;2.40;2.10;;;;;;;;;;5005083;28;20215;-72
2023/07/06 10:14:34;;;;;;;3.80;2.47;;;;;;;;;;5009072;28;20240;-72
2023/07/06 10:17:18;;;;;;;2.87;2.67;;;;;;;;;;5008691;28;20280;-72
2023/07/06 10:20:05;;;;;;;2.83;2.20;;;;;;;;;;5014979;28;20210;-72
2023/07/06 10:22:36;;;;;;;4.73;2.57;;;;;;;;;;5008460;28;20204;-72
2023/07/06 10:25:37;;;;;;;3.70;2.50;;;;;;;;;;5010670;28;20207;-72
2023/07/06 10:28:23;;;;;;;3.87;2.47;;;;;;;;;;4928566;29;20272;-72
2023/07/06 10:30:50;;;;;;;7.03;3.00;;;;;;;;;;5001357;28;20213;-72
2023/07/06 10:33:22;;;;;;;4.97;2.93;;;;;;;;;;4999710;28;20195;-72
2023/07/06 10:35:50;;;;;;;2.73;2.53;;;;;;;;;;5010749;28;20189;-72
2023/07/06 10:38:16;;;;;;;4.33;2.47;;;;;;;;;;5011943;28;20194;-72
2023/07/06 10:40:42;;;;;;;3.47;2.60;;;;;;;;;;5015325;28;20234;-72
2023/07/06 10:43:14;;;;;;;2.90;2.10;;;;;;;;;;4988280;28;20202;-72
2023/07/06 10:45:42;;;;;;;2.43;2.23;;;;;;;;;;4992737;28;20184;-72
2023/07/06 10:48:13;;;;;;;6.00;2.93;;;;;;;;;;4995592;28;20263;-72
2023/07/06 10:50:43;;;;;;;2.63;2.42;;;;;;;;;;4990738;28;20212;-72
2023/07/06 10:53:17;;;;;;;2.40;2.20;;;;;;;;;;5010564;28;20187;-72
2023/07/06 10:55:54;;;;;;;2.55;2.22;;;;;;;;;;4992208;28;20199;-72
2023/07/06 10:58:23;;;;;;;2.60;2.40;;;;;;;;;;5014833;28;20175;-72
2023/07/06 11:00:49;;;;;;;4.38;2.90;;;;;;;;;;4994416;28;20305;-72
2023/07/06 11:03:16;;;;;;;2.63;2.40;;;;;;;;;;5003063;28;20222;-72
2023/07/06 11:05:54;;;;;;;3.13;2.40;;;;;;;;;;5009274;28;20176;-72
2023/07/06 11:08:51;;;;;;;3.95;2.65;;;;;;;;;;4999595;28;20202;-72
2023/07/06 11:11:20;;;;;;;2.78;2.55;;;;;;;;;;4991078;28;20179;-72
2023/07/06 11:13:51;;;;;;;4.70;2.75;;;;;;;;;;4990268;28;20217;-72
2023/07/06 11:16:41;;;;;;;3.53;2.70;;;;;;;;;;5008309;28;20231;-72
2023/07/06 11:19:12;;;;;;;3.58;2.50;;;;;;;;;;4998577;28;20203;-73
2023/07/06 11:21:44;;;;;;;4.38;2.80;;;;;;;;;;5004902;28;20186;-72
2023/07/06 11:24:16;;;;;;;3.88;2.70;;;;;;;;;;5006257;28;20198;-72
2023/07/06 11:26:56;;;;;;;7.80;3.28;;;;;;;;;;5011653;28;20243;-72
2023/07/06 11:29:24;;;;;;;3.35;3.00;;;;;;;;;;5000766;28;20263;-72
2023/07/06 11:32:12;;;;;;;4.55;3.10;;;;;;;;;;5003910;28;20186;-72
2023/07/06 11:34:49;;;;;;;3.95;2.80;;;;;;;;;;5010845;28;20183;-72
2023/07/06 11:37:29;;;;;;;6.95;3.30;;;;;;;;;;5003014;28;20183;-73
2023/07/06 11:40:00;;;;;;;4.28;2.88;;;;;;;;;;5012145;28;20245;-72
2023/07/06 11:42:32;;;;;;;2.92;2.63;;;;;;;;;;5009151;28;20294;-72
2023/07/06 11:45:01;;;;;;;4.38;2.92;;;;;;;;;;4992589;28;20175;-72
2023/07/06 11:47:29;;;;;;;3.67;2.70;;;;;;;;;;5013014;28;20174;-72
2023/07/06 11:49:57;;;;;;;3.15;2.70;;;;;;;;;;5005811;28;20195;-72
2023/07/06 11:52:22;;;;;;;4.90;2.70;;;;;;;;;;5006971;28;20238;-72
2023/07/06 11:54:51;;;;;;;3.20;2.90;;;;;;;;;;4983318;28;20232;-72
2023/07/06 11:57:31;;;;;;;7.03;3.10;;;;;;;;;;4973875;28;20179;-72
2023/07/06 12:03:09;;;;;;;3.45;2.50;;;;;;;;;;4920992;29;20182;-72
2023/07/06 12:05:35;;;;;;;3.97;2.88;;;;;;;;;;4915754;29;20205;-72
2023/07/06 12:08:02;;;;;;;4.72;2.88;;;;;;;;;;4916772;29;20186;-72
2023/07/06 12:10:31;;;;;;;3.92;2.80;;;;;;;;;;4923930;29;20191;-73
2023/07/06 12:12:57;;;;;;;3.00;2.70;;;;;;;;;;4928469;29;20193;-72
2023/07/06 12:15:22;;;;;;;3.50;2.85;;;;;;;;;;4924541;29;20194;-72
2023/07/06 12:17:55;;;;;;;3.25;2.50;;;;;;;;;;4926739;29;20187;-72
2023/07/06 12:20:21;;;;;;;5.30;2.65;;;;;;;;;;4937106;29;20214;-73
2023/07/06 12:22:50;;;;;;;4.45;3.30;;;;;;;;;;4929479;29;20318;-72
2023/07/06 12:25:20;;;;;;;3.70;2.97;;;;;;;;;;4920524;29;20174;-72
2023/07/06 12:27:45;;;;;;;3.03;2.70;;;;;;;;;;4923991;29;20299;-72
2023/07/06 12:30:14;;;;;;;3.15;2.30;;;;;;;;;;4929461;29;20273;-72
2023/07/06 12:32:42;;;;;;;3.00;2.70;;;;;;;;;;4927009;29;20189;-72
2023/07/06 12:35:11;;;;;;;4.40;2.75;;;;;;;;;;4970388;28;20181;-72
2023/07/06 12:37:41;;;;;;;3.33;2.55;;;;;;;;;;4972122;28;20184;-73
2023/07/06 12:40:16;;;;;;;5.30;3.03;;;;;;;;;;4968895;28;20212;-72
2023/07/06 12:42:41;;;;;;;4.93;2.65;;;;;;;;;;4993456;28;20179;-72
2023/07/06 12:45:08;;;;;;;5.38;2.85;;;;;;;;;;4996088;28;20176;-72
2023/07/06 12:47:37;;;;;;;3.78;2.90;;;;;;;;;;4970010;28;20220;-72
2023/07/06 12:50:05;;;;;;;5.07;3.20;;;;;;;;;;4980584;28;20216;-72
2023/07/06 12:52:32;;;;;;;5.38;3.22;;;;;;;;;;4975697;28;20184;-73
2023/07/06 12:54:57;;;;;;;4.35;2.80;;;;;;;;;;4999387;28;20235;-72
2023/07/06 12:57:28;;;;;;;4.75;3.17;;;;;;;;;;4991728;28;20191;-72
2023/07/06 13:00:17;;;;;;;8.05;3.10;;;;;;;;;;5003534;28;20204;-72
2023/07/06 13:02:42;;;;;;;4.40;2.55;;;;;;;;;;5002705;28;20179;-72
2023/07/06 13:05:15;;;;;;;3.20;2.60;;;;;;;;;;5007432;28;20188;-72
2023/07/06 13:07:41;;;;;;;7.00;3.42;;;;;;;;;;5012173;28;20182;-72
2023/07/06 13:10:12;;;;;;;3.53;3.00;;;;;;;;;;4992423;28;20234;-72
2023/07/06 13:12:41;;;;;;;4.20;2.83;;;;;;;;;;4987405;28;20192;-73
2023/07/06 13:15:07;;;;;;;4.53;3.17;;;;;;;;;;5011440;28;20184;-73
2023/07/06 13:17:32;;;;;;;3.75;3.28;;;;;;;;;;5011090;28;20175;-72
2023/07/06 13:19:57;;;;;;;3.55;2.70;;;;;;;;;;5007413;28;20201;-72
2023/07/06 13:22:23;;;;;;;3.83;2.55;;;;;;;;;;5009227;28;20179;-72
2023/07/06 13:24:48;;;;;;;4.20;3.20;;;;;;;;;;4994245;28;20259;-72
2023/07/06 13:27:15;;;;;;;2.88;2.60;;;;;;;;;;4991856;28;20206;-72
2023/07/06 13:29:40;;;;;;;4.57;3.10;;;;;;;;;;4995291;28;20209;-73
2023/07/06 13:32:09;;;;;;;4.90;3.08;;;;;;;;;;5010701;28;20219;-72
2023/07/06 13:34:35;;;;;;;5.30;3.35;;;;;;;;;;4991243;28;20194;-72
2023/07/06 13:37:01;;;;;;;3.75;3.40;;;;;;;;;;5014146;28;20266;-72
2023/07/06 13:39:26;;;;;;;4.40;2.92;;;;;;;;;;5010360;28;20225;-73
2023/07/06 13:41:52;;;;;;;3.97;2.95;;;;;;;;;;4991459;28;20172;-72
2023/07/06 13:44:17;;;;;;;6.03;3.00;;;;;;;;;;4994227;28;20180;-73
2023/07/06 13:46:46;;;;;;;5.70;3.00;;;;;;;;;;4998904;28;20177;-73
2023/07/06 13:49:13;;;;;;;3.22;2.88;;;;;;;;;;5013867;28;20274;-72
2023/07/06 13:51:38;;;;;;;4.18;2.90;;;;;;;;;;5010213;28;20167;-73
2023/07/06 13:54:04;;;;;;;4.43;2.95;;;;;;;;;;5009629;28;20231;-72
2023/07/06 13:56:29;;;;;;;4.38;3.28;;;;;;;;;;5012686;28;20180;-73
2023/07/06 13:58:54;;;;;;;3.40;2.67;;;;;;;;;;5012621;28;20270;-72
2023/07/06 14:01:21;;;;;;;4.28;2.95;;;;;;;;;;5005895;28;20180;-73
2023/07/06 14:03:46;;;;;;;3.28;2.90;;;;;;;;;;5012137;28;20175;-72
2023/07/06 14:06:12;;;;;;;7.65;3.42;;;;;;;;;;5011516;28;20267;-72
2023/07/06 14:08:38;;;;;;;3.58;3.00;;;;;;;;;;5008458;28;20192;-72
2023/07/06 14:11:04;;;;;;;3.38;2.70;;;;;;;;;;5011987;28;20179;-72
2023/07/06 14:13:29;;;;;;;4.93;2.78;;;;;;;;;;4999027;28;20180;-72
2023/07/06 14:15:55;;;;;;;7.18;2.95;;;;;;;;;;4998544;28;20230;-73
2023/07/06 14:18:21;;;;;;;6.53;3.20;;;;;;;;;;4993538;28;20175;-72
2023/07/06 14:20:46;;;;;;;2.90;2.63;;;;;;;;;;4997715;28;20245;-73
2023/07/06 14:23:13;;;;;;;3.75;2.75;;;;;;;;;;4997374;28;20260;-73
2023/07/06 14:25:38;;;;;;;18.98;4.65;;;;;;;;;;5012108;28;20175;-72
2023/07/06 14:28:04;;;;;;;7.30;3.22;;;;;;;;;;4993289;28;20175;-73
2023/07/06 14:30:30;;;;;;;3.45;2.55;;;;;;;;;;5009893;28;20262;-73
2023/07/06 14:32:58;;;;;;;5.07;3.05;;;;;;;;;;5010688;28;20285;-72
2023/07/06 14:35:23;;;;;;;4.35;2.58;;;;;;;;;;5007738;28;20175;-73
2023/07/06 14:37:50;;;;;;;4.57;2.90;;;;;;;;;;5000350;28;20193;-72
2023/07/06 14:40:15;;;;;;;3.72;3.03;;;;;;;;;;5007229;28;20211;-73
2023/07/06 14:42:41;;;;;;;4.03;2.95;;;;;;;;;;4992620;28;20179;-72
2023/07/06 14:45:06;;;;;;;5.03;2.85;;;;;;;;;;5009680;28;20179;-73
2023/07/06 14:47:34;;;;;;;3.10;2.83;;;;;;;;;;5009733;28;20175;-72
2023/07/06 14:50:00;;;;;;;3.05;2.78;;;;;;;;;;5006568;28;20196;-72